Terminal Aerodrome Forecast
Issued by NWS Jackson, KY

Home | Current Version | Previous Version | Text Only | Print | Product List | Glossary On
Versions: 1 2 3 4 5 6 7 8 9 10 11 12 13 14 15 16 17 18 19 20
000
FTUS43 KJKL 142338
TAFLOZ
TAF
KLOZ 142338Z 1500/1524 VRB03KT P6SM BKN035 BKN090
      TEMPO 1500/1502 6SM -RA BR FEW010
     FM150400 VRB03KT 4SM BR VCSH OVC030
     FM150700 VRB03KT 2SM BR VCSH OVC025
     FM151000 VRB03KT 1/2SM FG VCSH OVC003
     FM151300 VRB03KT 4SM BR VCSH BKN010
     FM151700 VRB03KT P6SM VCTS BKN035CB=

USA.gov is the U.S. government's official web portal to all federal, state and local government web resources and services.